»·PEaware :: N2702W KMRY-KWVI

N2702W :: KMRY-KWVI

FLIGHT INFORMATION

Flight Status: Arrived
Operator: Privately registered:
United States
More flights under this callsign
Pilot: Angus M. (9315)
Aircraft: Unknown
(SMAX)
More flights by this aircraft type
Origin: KMRY Monterey Peninsula
United States
Destination: KWVI Watsonville Mun
United States
More flights between these airports :: More routes between these airports
Route:
File this flight plan on PilotEdge
Remarks: SoCal relocation virtual planning route for IRL SeaMax transfer
Altitude:
(Current/Filed)
5,000ft
Speed:
(Current/Filed)
115kts
Departed: 15-Jul-16 05:07 PM
Arrived: 15-Jul-16 05:46 PM
Distance/Time
Traveled:
21nm/0:39
Distance/Time
To Go:
Arrived

Flight Plot

Page will automatically refresh every two minutes.


Map Options




Map Legend


Flown Route
Filed Route
Departure Airport
Arrival Airport
Navaid (VOR, NDB)
Fix

Horizontal Profiles

Position Reports

Time Latitude Longitude Heading Altitude Ground
Speed
15-Jul-16 16:48 36.587791 -121.838677 292 257ft 0kts
15-Jul-16 16:49 36.587791 -121.838677 292 257ft 0kts
15-Jul-16 16:50 36.587806 -121.838718 295 257ft 0kts
15-Jul-16 16:51 36.587806 -121.838718 295 257ft 0kts
15-Jul-16 16:52 36.587806 -121.838718 295 257ft 0kts
15-Jul-16 16:53 36.587806 -121.838718 295 257ft 0kts
15-Jul-16 16:54 36.587806 -121.838718 295 257ft 0kts
15-Jul-16 16:55 36.587806 -121.838718 295 257ft 0kts
15-Jul-16 16:56 36.587338 -121.838864 132 258ft 4kts
15-Jul-16 16:57 36.586739 -121.837885 113 257ft 8kts
15-Jul-16 16:58 36.585828 -121.835239 113 257ft 7kts
15-Jul-16 16:59 36.585237 -121.833635 146 257ft 1kts
15-Jul-16 17:00 36.584967 -121.833862 281 258ft 0kts
15-Jul-16 17:01 36.585140 -121.834431 292 258ft 17kts
15-Jul-16 17:02 36.590435 -121.853320 298 886ft 85kts
15-Jul-16 17:03 36.606325 -121.866899 353 1928ft 91kts
15-Jul-16 17:04 36.624949 -121.868386 359 2857ft 91kts
15-Jul-16 17:05 36.643162 -121.868552 359 3719ft 92kts
15-Jul-16 17:06 36.661330 -121.868572 0 4534ft 93kts
15-Jul-16 17:07 36.678293 -121.867145 1 5103ft 91kts
15-Jul-16 17:08 36.692852 -121.864884 11 5218ft 98kts
15-Jul-16 17:09 36.711443 -121.857160 35 5316ft 97kts
15-Jul-16 17:10 36.717699 -121.844910 71 5353ft 97kts
15-Jul-16 17:11 36.726142 -121.829608 29 5382ft 99kts
15-Jul-16 17:12 36.741168 -121.822233 10 5290ft 106kts
15-Jul-16 17:13 36.757879 -121.819707 359 5103ft 104kts
15-Jul-16 17:14 36.774440 -121.821547 348 5017ft 95kts
15-Jul-16 17:15 36.790630 -121.825464 349 4966ft 96kts
15-Jul-16 17:16 36.806754 -121.827948 353 5051ft 96kts
15-Jul-16 17:17 36.822368 -121.830844 350 5135ft 96kts
15-Jul-16 17:18 36.838030 -121.835667 347 5212ft 96kts
15-Jul-16 17:19 36.849740 -121.835757 27 5244ft 98kts
15-Jul-16 17:20 36.860703 -121.826940 45 5325ft 96kts
15-Jul-16 17:21 36.869190 -121.815081 52 5357ft 92kts
15-Jul-16 17:22 36.877626 -121.800465 56 5112ft 98kts
15-Jul-16 17:23 36.885621 -121.785399 53 4878ft 97kts
15-Jul-16 17:24 36.895480 -121.772012 31 4623ft 99kts
15-Jul-16 17:25 36.907571 -121.764038 29 4426ft 94kts
15-Jul-16 17:26 36.919388 -121.755594 14 4116ft 96kts
15-Jul-16 17:27 36.932516 -121.758542 0 3666ft 102kts
15-Jul-16 17:28 36.945722 -121.760361 339 3208ft 92kts
15-Jul-16 17:29 36.956737 -121.769628 310 2720ft 90kts
15-Jul-16 17:30 36.962208 -121.784471 256 2174ft 91kts
15-Jul-16 17:31 36.951498 -121.784688 132 1699ft 78kts
15-Jul-16 17:32 36.953397 -121.773511 18 1390ft 69kts
15-Jul-16 17:33 36.959524 -121.780725 247 1175ft 59kts
15-Jul-16 17:34 36.949452 -121.785544 181 903ft 63kts
15-Jul-16 17:35 36.936920 -121.788922 209 376ft 77kts
15-Jul-16 17:36 36.924693 -121.798579 191 357ft 62kts
15-Jul-16 17:37 36.917675 -121.790992 89 491ft 61kts
15-Jul-16 17:38 36.920500 -121.778593 51 679ft 62kts
15-Jul-16 17:39 36.929431 -121.772663 8 709ft 61kts
15-Jul-16 17:40 36.936555 -121.778943 269 412ft 59kts
15-Jul-16 17:41 36.937656 -121.789492 342 164ft 4kts
15-Jul-16 17:42 36.937404 -121.788408 108 164ft 9kts
15-Jul-16 17:43 36.936274 -121.788480 169 164ft 3kts
15-Jul-16 17:44 36.935881 -121.787637 98 164ft 2kts
15-Jul-16 17:45 36.935881 -121.787631 98 164ft 0kts

Navigation Log

Ident Type
Flight plan parsing failed, navigation log unavailable